Time;durP1;ratioP1;P1;durP2;ratioP2;P2;SDS_P1;SDS_P2;PMS_P1;PMS_P2;Temp;Humidity;BMP_temperature;BMP_pressure;BME280_temperature;BME280_humidity;BME280_pressure;Samples;Min_cycle;Max_cycle;Signal;HPM_P1;HPM_P2
2022/08/23 00:00:00;;;;;;;17.02;12.10;;;;;;;20.57;100.00;94117.94;5069073;28;20182;-81
2022/08/23 00:02:28;;;;;;;17.13;12.67;;;;;;;20.58;100.00;94128.13;5078604;28;20629;-80
2022/08/23 00:04:55;;;;;;;15.03;13.43;;;;;;;20.58;100.00;94125.50;5088891;28;20233;-81
2022/08/23 00:07:22;;;;;;;17.45;12.40;;;;;;;20.58;100.00;94130.72;5089552;28;20201;-80
2022/08/23 00:09:49;;;;;;;15.77;12.83;;;;;;;20.61;100.00;94138.09;5089341;28;20221;-79
2022/08/23 00:12:19;;;;;;;15.67;13.90;;;;;;;20.60;100.00;94139.09;5089691;28;20198;-81
2022/08/23 00:14:50;;;;;;;16.37;13.40;;;;;;;20.63;100.00;94137.88;5089469;28;20284;-79
2022/08/23 00:17:17;;;;;;;16.00;13.43;;;;;;;20.68;100.00;94143.22;5089723;28;20205;-81
2022/08/23 00:19:47;;;;;;;16.50;13.53;;;;;;;20.70;100.00;94143.81;5089356;28;20220;-79
2022/08/23 00:22:15;;;;;;;18.27;14.23;;;;;;;20.63;100.00;94130.06;5089569;28;20216;-82
2022/08/23 00:24:42;;;;;;;17.83;12.63;;;;;;;20.72;100.00;94139.19;5089471;28;20254;-81
2022/08/23 00:27:11;;;;;;;17.42;13.18;;;;;;;20.75;100.00;94123.97;5089257;28;20200;-79
2022/08/23 00:29:41;;;;;;;18.83;13.18;;;;;;;20.66;100.00;94111.47;5089360;28;20216;-79
2022/08/23 00:32:10;;;;;;;16.17;13.10;;;;;;;20.77;100.00;94129.75;5089170;28;20532;-81
2022/08/23 00:34:38;;;;;;;16.95;13.75;;;;;;;20.80;100.00;94128.50;5089480;28;20661;-79
2022/08/23 00:37:08;;;;;;;18.17;14.23;;;;;;;20.70;100.00;94110.81;5089072;28;20197;-80
2022/08/23 00:39:35;;;;;;;15.50;13.20;;;;;;;20.84;100.00;94134.88;5093607;28;20223;-80
2022/08/23 00:47:42;;;;;;;13.65;12.25;;;;;;;20.87;98.72;94128.47;5101306;28;20692;-79
2022/08/23 00:50:19;;;;;;;12.60;11.05;;;;;;;20.72;98.11;94106.19;5093612;28;20221;-82
2022/08/23 00:52:55;;;;;;;14.88;10.95;;;;;;;20.81;97.87;94122.31;5093105;28;20199;-81
2022/08/23 00:55:22;;;;;;;15.50;12.00;;;;;;;20.83;97.92;94125.50;5093712;28;20296;-81
2022/08/23 00:57:48;;;;;;;15.75;11.90;;;;;;;20.84;97.79;94132.28;5093345;28;20220;-82
2022/08/23 01:00:17;;;;;;;15.02;12.18;;;;;;;20.82;98.12;94138.72;5093211;28;20190;-80
2022/08/23 01:02:46;;;;;;;13.57;12.23;;;;;;;20.80;98.26;94126.72;5093112;28;20209;-80
2022/08/23 01:05:14;;;;;;;15.98;11.90;;;;;;;20.67;98.34;94107.84;5093031;28;20317;-81
2022/08/23 01:07:46;;;;;;;16.90;12.80;;;;;;;20.58;98.48;94106.53;5093854;28;20204;-80
2022/08/23 01:10:23;;;;;;;16.33;12.93;;;;;;;20.77;98.37;94126.38;5094102;28;20346;-80
2022/08/23 01:12:56;;;;;;;21.83;13.90;;;;;;;20.76;99.05;94135.94;5094925;28;20194;-80
2022/08/23 01:15:28;;;;;;;17.25;13.68;;;;;;;20.81;98.94;94132.69;5094889;28;20212;-80
2022/08/23 01:18:02;;;;;;;15.88;13.65;;;;;;;20.79;99.18;94137.31;5106563;28;20185;-79
2022/08/23 01:20:35;;;;;;;23.33;13.98;;;;;;;20.78;99.47;94141.72;5118291;28;20192;-79
2022/08/23 01:23:07;;;;;;;21.90;14.95;;;;;;;20.77;99.59;94142.75;5118810;28;20196;-79
2022/08/23 01:25:38;;;;;;;20.10;15.13;;;;;;;20.76;99.58;94142.94;5118341;28;20202;-80
2022/08/23 01:28:05;;;;;;;16.60;14.15;;;;;;;20.73;99.83;94146.00;5103907;28;20549;-78
2022/08/23 01:30:34;;;;;;;19.35;14.77;;;;;;;20.69;100.00;94140.41;5092469;28;20192;-78
2022/08/23 01:33:04;;;;;;;18.77;14.65;;;;;;;20.68;99.97;94141.44;5092552;28;20300;-79
2022/08/23 01:35:36;;;;;;;18.10;15.05;;;;;;;20.77;100.00;94147.94;5092219;28;20208;-79
2022/08/23 01:38:04;;;;;;;20.00;15.35;;;;;;;20.74;100.00;94143.16;5092150;28;20197;-79
2022/08/23 01:40:32;;;;;;;17.20;14.77;;;;;;;20.81;99.94;94140.50;5091801;28;20194;-79
2022/08/23 01:43:00;;;;;;;17.52;15.63;;;;;;;20.81;99.72;94140.50;5091872;28;20201;-80
2022/08/23 01:45:28;;;;;;;18.92;16.50;;;;;;;20.83;99.93;94135.88;5091572;28;20194;-80
2022/08/23 01:47:57;;;;;;;19.50;15.45;;;;;;;20.83;99.80;94133.28;5091564;28;20186;-79
2022/08/23 01:50:25;;;;;;;20.63;15.57;;;;;;;20.84;99.86;94134.09;5091262;28;20705;-80
2022/08/23 01:52:52;;;;;;;17.83;15.88;;;;;;;20.86;100.00;94150.28;5092231;28;20182;-81
2022/08/23 01:55:20;;;;;;;18.25;15.73;;;;;;;20.56;99.75;94095.56;5091998;28;20251;-82
2022/08/23 01:57:50;;;;;;;24.95;18.05;;;;;;;20.96;98.92;94138.38;5091936;28;20186;-81
2022/08/23 02:00:19;;;;;;;25.53;18.33;;;;;;;20.80;100.00;94134.50;5092073;28;20182;-81
2022/08/23 02:02:47;;;;;;;19.92;16.08;;;;;;;20.96;99.50;94125.38;5091328;28;20200;-79
2022/08/23 02:05:14;;;;;;;18.05;16.13;;;;;;;20.91;99.50;94135.63;5091520;28;20229;-80
2022/08/23 02:07:40;;;;;;;23.17;15.88;;;;;;;20.89;100.00;94134.22;5091193;28;20238;-80
2022/08/23 02:10:09;;;;;;;18.45;15.98;;;;;;;20.88;100.00;94130.03;5091475;28;20232;-81
2022/08/23 02:12:37;;;;;;;18.50;15.23;;;;;;;20.85;99.75;94130.47;5091192;28;20676;-81
2022/08/23 02:15:05;;;;;;;17.30;15.27;;;;;;;20.89;99.35;94126.44;5091178;28;20225;-82
2022/08/23 02:17:33;;;;;;;18.13;14.73;;;;;;;20.95;98.63;94123.78;5091265;28;20217;-82
2022/08/23 02:20:02;;;;;;;21.60;15.40;;;;;;;20.95;98.98;94115.19;5091362;28;20177;-81
2022/08/23 02:22:29;;;;;;;17.80;13.85;;;;;;;20.97;98.38;94124.34;5090916;28;20505;-80
2022/08/23 02:24:56;;;;;;;16.63;14.82;;;;;;;20.87;99.08;94124.06;5090812;28;20649;-80
2022/08/23 02:27:23;;;;;;;15.18;13.32;;;;;;;20.92;98.64;94111.19;5090903;28;20190;-80
2022/08/23 02:29:50;;;;;;;15.63;13.18;;;;;;;20.90;98.86;94115.03;5090711;28;20225;-80
2022/08/23 02:32:19;;;;;;;14.75;13.13;;;;;;;20.93;98.43;94110.19;5090809;28;20194;-80
2022/08/23 02:34:47;;;;;;;14.27;12.18;;;;;;;20.97;97.96;94102.75;5091098;28;20182;-80
2022/08/23 02:37:14;;;;;;;14.10;12.25;;;;;;;20.96;97.47;94103.78;5090812;28;20190;-81
2022/08/23 02:39:42;;;;;;;15.60;11.50;;;;;;;20.95;97.20;94110.00;5091093;28;20542;-80
2022/08/23 02:42:09;;;;;;;13.05;10.80;;;;;;;20.87;96.33;94085.06;5090472;28;20182;-81
2022/08/23 02:44:37;;;;;;;13.30;10.70;;;;;;;21.09;95.11;94111.44;5090594;28;20605;-79
2022/08/23 02:47:06;;;;;;;13.27;9.70;;;;;;;21.12;94.41;94107.63;5090852;28;20200;-81
2022/08/23 02:49:33;;;;;;;12.73;9.77;;;;;;;21.17;93.16;94110.34;5090278;28;20312;-81
2022/08/23 02:52:01;;;;;;;10.73;9.02;;;;;;;21.05;91.20;94097.28;5090768;28;20189;-80
2022/08/23 02:54:28;;;;;;;10.93;9.60;;;;;;;21.12;91.26;94107.63;5091488;28;20193;-80
2022/08/23 02:56:55;;;;;;;15.48;9.13;;;;;;;21.19;90.78;94106.50;5090589;28;20193;-80
2022/08/23 02:59:22;;;;;;;11.05;8.95;;;;;;;21.23;90.58;94107.66;5090024;28;20189;-80
2022/08/23 03:01:50;;;;;;;11.77;9.25;;;;;;;21.11;90.71;94082.59;5089788;28;20189;-80
2022/08/23 03:04:17;;;;;;;9.30;8.45;;;;;;;21.20;90.24;94105.53;5090356;28;20304;-80
2022/08/23 03:06:44;;;;;;;8.18;7.38;;;;;;;21.25;89.31;94102.25;5090501;28;20182;-82
2022/08/23 03:09:12;;;;;;;8.25;7.32;;;;;;;21.24;89.46;94109.28;5090116;28;20221;-80
2022/08/23 03:11:44;;;;;;;8.30;7.45;;;;;;;21.28;88.59;94096.59;5090272;28;20189;-80
2022/08/23 03:14:11;;;;;;;8.55;7.05;;;;;;;21.34;87.52;94092.38;5090089;28;20665;-81
2022/08/23 03:16:39;;;;;;;8.45;7.65;;;;;;;21.22;88.06;94097.50;5090216;28;20568;-81
2022/08/23 03:19:06;;;;;;;8.20;7.40;;;;;;;21.26;88.05;94096.84;5090070;28;20190;-80
2022/08/23 03:21:33;;;;;;;7.45;6.75;;;;;;;21.34;87.34;94103.59;5090409;28;20205;-80
2022/08/23 03:24:00;;;;;;;7.85;6.55;;;;;;;21.30;87.43;94100.59;5089637;28;20198;-81
2022/08/23 03:26:28;;;;;;;9.20;7.40;;;;;;;21.33;87.61;94099.41;5089981;28;20194;-81
2022/08/23 03:28:55;;;;;;;8.63;6.97;;;;;;;21.36;87.12;94098.94;5089797;28;20221;-81
2022/08/23 03:31:22;;;;;;;7.88;6.90;;;;;;;21.37;87.47;94103.13;5090130;28;20190;-80
2022/08/23 03:33:49;;;;;;;8.40;6.43;;;;;;;21.32;87.68;94110.78;5089904;28;20207;-81
2022/08/23 03:36:16;;;;;;;10.32;6.72;;;;;;;21.32;87.91;94115.22;5089727;28;20185;-79
2022/08/23 03:38:44;;;;;;;7.50;6.80;;;;;;;21.30;87.96;94121.41;5089603;28;20279;-80
2022/08/23 03:41:11;;;;;;;7.40;6.70;;;;;;;21.25;87.91;94104.88;5089267;28;20661;-80
2022/08/23 03:43:39;;;;;;;7.97;7.18;;;;;;;21.28;87.75;94123.41;5089547;28;20194;-80
2022/08/23 03:46:07;;;;;;;7.55;6.85;;;;;;;21.17;88.29;94134.56;5089669;28;20190;-81
2022/08/23 03:48:36;;;;;;;7.50;6.72;;;;;;;21.20;88.66;94128.91;5089843;28;20194;-81
2022/08/23 03:51:03;;;;;;;10.80;7.03;;;;;;;21.16;88.80;94140.78;5089542;28;20205;-80
2022/08/23 03:53:30;;;;;;;7.80;6.78;;;;;;;21.09;88.78;94126.25;5089425;28;20679;-80
2022/08/23 03:55:57;;;;;;;9.00;7.30;;;;;;;21.08;89.12;94159.25;5088857;28;20196;-80
2022/08/23 03:58:26;;;;;;;9.50;7.07;;;;;;;21.20;89.25;94164.50;5089608;28;20189;-79
2022/08/23 04:00:56;;;;;;;8.32;7.45;;;;;;;21.18;89.91;94179.56;5089323;28;20193;-80
2022/08/23 04:03:23;;;;;;;10.52;9.07;;;;;;;21.08;90.57;94169.66;5089531;28;20193;-80
2022/08/23 04:05:50;;;;;;;12.13;9.68;;;;;;;21.16;91.37;94192.00;5089081;28;20724;-81
2022/08/23 04:08:16;;;;;;;16.80;11.77;;;;;;;21.10;91.82;94196.22;5089291;28;20189;-81
2022/08/23 04:10:44;;;;;;;13.23;10.75;;;;;;;20.98;93.16;94208.31;5089239;28;20307;-81
2022/08/23 04:13:16;;;;;;;18.17;12.27;;;;;;;20.89;93.61;94197.41;5095252;28;20197;-81
2022/08/23 04:15:43;;;;;;;15.38;12.30;;;;;;;20.91;94.12;94220.59;5096355;28;20375;-81
2022/08/23 04:18:12;;;;;;;14.75;11.75;;;;;;;20.86;94.65;94218.66;5096003;28;20563;-81
2022/08/23 04:20:39;;;;;;;17.70;13.10;;;;;;;20.87;94.70;94214.25;5095999;28;20238;-82
2022/08/23 04:23:06;;;;;;;14.20;12.65;;;;;;;20.86;94.42;94215.25;5095409;28;20244;-80
2022/08/23 04:25:33;;;;;;;18.67;14.25;;;;;;;20.79;94.94;94218.69;5095782;28;20210;-80
2022/08/23 04:28:00;;;;;;;19.83;13.35;;;;;;;20.73;95.31;94216.16;5096013;28;20576;-81
2022/08/23 04:30:27;;;;;;;17.08;13.65;;;;;;;20.67;95.45;94204.00;5095976;28;20248;-80
2022/08/23 04:32:54;;;;;;;16.58;13.57;;;;;;;20.78;95.59;94214.50;5095608;28;20186;-82
2022/08/23 04:35:24;;;;;;;18.73;13.20;;;;;;;20.69;95.04;94210.56;5095794;28;20653;-82
2022/08/23 04:37:51;;;;;;;17.75;15.25;;;;;;;20.68;96.17;94216.78;5095289;28;20660;-80
2022/08/23 04:43:02;;;;;;;20.33;14.70;;;;;;;20.66;96.25;94210.19;5095322;28;20197;-80
2022/08/23 04:45:31;;;;;;;19.02;16.58;;;;;;;20.77;95.54;94218.13;5095976;28;20212;-80
2022/08/23 04:47:58;;;;;;;18.98;15.25;;;;;;;20.82;95.21;94220.06;5095207;28;20223;-81
2022/08/23 04:50:26;;;;;;;19.25;16.05;;;;;;;20.78;95.72;94216.31;5096061;28;20213;-79
2022/08/23 04:52:53;;;;;;;25.70;16.27;;;;;;;20.84;95.22;94219.84;5095749;28;20190;-79
2022/08/23 04:55:20;;;;;;;21.33;17.77;;;;;;;20.76;95.84;94207.91;5095614;28;20193;-80
2022/08/23 04:57:47;;;;;;;24.60;19.90;;;;;;;20.73;96.15;94208.34;5095672;28;20196;-80
2022/08/23 05:00:16;;;;;;;25.70;19.73;;;;;;;20.75;96.10;94216.72;5095935;28;20688;-80
2022/08/23 05:02:43;;;;;;;28.45;21.90;;;;;;;20.70;96.55;94222.56;5095336;28;20182;-79
2022/08/23 05:05:10;;;;;;;29.07;22.43;;;;;;;20.68;96.70;94210.78;5096679;28;20235;-80
2022/08/23 05:07:39;;;;;;;28.33;21.65;;;;;;;20.78;96.82;94231.91;5095656;28;20715;-81
2022/08/23 05:10:09;;;;;;;24.80;22.02;;;;;;;20.81;96.28;94231.47;5095411;28;20248;-80
2022/08/23 05:12:36;;;;;;;27.67;22.40;;;;;;;20.69;96.76;94236.56;5095852;28;20189;-81
2022/08/23 05:15:03;;;;;;;26.60;22.17;;;;;;;20.74;96.85;94233.34;5095128;28;20289;-80
2022/08/23 05:17:30;;;;;;;31.23;21.83;;;;;;;20.68;97.15;94237.56;5095851;28;20197;-80
2022/08/23 05:19:57;;;;;;;25.80;22.10;;;;;;;20.67;97.21;94237.78;5095061;28;20676;-81
2022/08/23 05:22:24;;;;;;;29.08;23.30;;;;;;;20.61;97.57;94239.41;5095476;28;20664;-80
2022/08/23 05:24:52;;;;;;;27.63;23.48;;;;;;;20.61;98.01;94249.03;5091256;28;20194;-80
2022/08/23 05:27:18;;;;;;;27.70;23.13;;;;;;;20.52;97.71;94235.47;5092288;28;20193;-80
2022/08/23 05:29:46;;;;;;;27.27;20.93;;;;;;;20.69;97.32;94256.56;5092358;28;20221;-80
2022/08/23 05:32:13;;;;;;;23.45;19.05;;;;;;;20.68;96.90;94254.94;5093053;28;20202;-80
2022/08/23 05:34:39;;;;;;;20.90;18.27;;;;;;;20.71;96.63;94252.72;5092709;28;20674;-81
2022/08/23 05:37:06;;;;;;;19.30;17.20;;;;;;;20.72;96.87;94256.91;5092737;28;20642;-81
2022/08/23 05:39:33;;;;;;;20.73;18.35;;;;;;;20.60;96.46;94232.63;5092409;28;20190;-80
2022/08/23 05:42:01;;;;;;;22.15;17.63;;;;;;;20.80;96.74;94248.06;5092146;28;20198;-80
2022/08/23 05:44:28;;;;;;;21.20;17.98;;;;;;;20.90;96.82;94256.19;5092501;28;20194;-80
2022/08/23 05:46:55;;;;;;;24.13;17.30;;;;;;;21.00;95.46;94259.13;5092031;28;20196;-81
2022/08/23 05:49:22;;;;;;;22.67;18.58;;;;;;;20.99;95.03;94259.34;5091672;28;20197;-81
2022/08/23 05:51:49;;;;;;;18.33;16.42;;;;;;;21.10;94.80;94253.44;5091571;28;20225;-80
2022/08/23 05:54:16;;;;;;;19.33;15.88;;;;;;;21.23;94.18;94255.91;5091902;28;20192;-81
2022/08/23 05:56:44;;;;;;;20.40;16.33;;;;;;;21.37;94.24;94248.00;5091298;28;20205;-81
2022/08/23 05:59:15;;;;;;;19.70;16.08;;;;;;;21.54;93.65;94259.44;5091592;28;20289;-80
2022/08/23 06:01:44;;;;;;;20.00;16.98;;;;;;;21.70;93.40;94260.69;5091868;28;20293;-80
2022/08/23 06:04:12;;;;;;;17.67;15.80;;;;;;;21.90;92.07;94269.09;5091398;28;20217;-80
2022/08/23 06:06:40;;;;;;;22.73;15.93;;;;;;;21.97;91.59;94269.78;5091711;28;20189;-81
2022/08/23 06:09:11;;;;;;;16.95;14.85;;;;;;;22.19;90.75;94274.56;5091749;28;20181;-80
2022/08/23 06:11:38;;;;;;;19.98;15.30;;;;;;;22.21;90.90;94256.91;5090945;28;20232;-80
2022/08/23 06:14:08;;;;;;;15.38;13.80;;;;;;;22.50;89.69;94271.75;5091218;28;20200;-81
2022/08/23 06:16:39;;;;;;;14.98;13.38;;;;;;;22.59;88.80;94266.25;5091042;28;20247;-80
2022/08/23 06:19:08;;;;;;;16.20;13.52;;;;;;;22.81;88.31;94272.53;5091232;28;20189;-81
2022/08/23 06:21:36;;;;;;;14.07;12.70;;;;;;;22.97;87.50;94271.91;5091063;28;20185;-81
2022/08/23 06:24:03;;;;;;;15.02;13.45;;;;;;;23.10;87.33;94281.34;5091189;28;20697;-81
2022/08/23 06:26:33;;;;;;;18.30;13.40;;;;;;;23.17;85.56;94286.44;5090948;28;20563;-80
2022/08/23 06:29:03;;;;;;;15.30;13.00;;;;;;;23.24;86.00;94276.69;5090992;28;20194;-81
2022/08/23 06:31:46;;;;;;;16.90;13.75;;;;;;;23.35;83.60;94282.94;5090544;28;20225;-80
2022/08/23 06:34:18;;;;;;;13.13;11.82;;;;;;;23.53;84.50;94295.88;5090735;28;20182;-80
2022/08/23 06:36:47;;;;;;;13.02;11.60;;;;;;;23.74;83.57;94291.91;5089698;28;20190;-80
2022/08/23 06:39:15;;;;;;;14.32;12.65;;;;;;;23.64;82.20;94268.97;5090939;28;20178;-80
2022/08/23 06:41:41;;;;;;;16.23;12.27;;;;;;;24.02;82.73;94297.22;5090431;28;20209;-80
2022/08/23 06:44:09;;;;;;;13.55;11.38;;;;;;;24.13;80.67;94286.97;5090676;28;20185;-80
2022/08/23 06:46:37;;;;;;;14.52;11.85;;;;;;;24.37;80.79;94300.75;5090650;28;20186;-79
2022/08/23 06:49:05;;;;;;;13.85;12.32;;;;;;;24.48;78.31;94300.75;5090789;28;20193;-80
2022/08/23 06:51:36;;;;;;;13.45;11.52;;;;;;;24.46;78.18;94291.53;5090535;28;20650;-80
2022/08/23 06:54:06;;;;;;;14.23;12.43;;;;;;;24.56;76.30;94307.41;5090711;28;20192;-81
2022/08/23 06:56:33;;;;;;;11.55;10.45;;;;;;;24.53;76.05;94300.84;5090197;28;20296;-81
2022/08/23 06:59:02;;;;;;;13.65;12.02;;;;;;;24.52;76.65;94304.50;5090329;28;20195;-80
2022/08/23 07:01:34;;;;;;;14.80;12.15;;;;;;;24.39;76.13;94304.75;5090721;28;20188;-80
2022/08/23 07:04:02;;;;;;;12.43;11.13;;;;;;;24.47;77.38;94295.75;5090262;28;20201;-79
2022/08/23 07:06:30;;;;;;;15.07;13.18;;;;;;;24.51;76.67;94295.03;5090971;28;20186;-79
2022/08/23 07:08:59;;;;;;;12.13;10.93;;;;;;;24.55;76.49;94289.34;5090400;28;20262;-80
2022/08/23 07:11:30;;;;;;;13.93;12.02;;;;;;;24.52;76.51;94303.66;5090510;28;20216;-80
2022/08/23 07:13:59;;;;;;;12.20;10.85;;;;;;;24.57;76.04;94305.59;5090628;28;20268;-79
2022/08/23 07:16:25;;;;;;;12.50;11.30;;;;;;;24.67;76.47;94298.72;5090572;28;20280;-80
2022/08/23 07:18:54;;;;;;;11.73;10.23;;;;;;;24.79;75.67;94306.53;5090110;28;20569;-81
2022/08/23 07:21:21;;;;;;;11.27;10.07;;;;;;;24.75;75.61;94308.81;5089892;28;20205;-81
2022/08/23 07:23:48;;;;;;;12.25;11.05;;;;;;;24.83;74.52;94314.69;5089762;28;20194;-80
2022/08/23 07:26:17;;;;;;;12.13;11.00;;;;;;;24.78;75.12;94305.75;5089866;28;20691;-80
2022/08/23 07:28:45;;;;;;;17.88;12.88;;;;;;;24.70;74.83;94300.88;5090048;28;20186;-79
2022/08/23 07:31:14;;;;;;;13.63;11.45;;;;;;;24.77;74.96;94308.56;5089840;28;20240;-81
2022/08/23 07:33:43;;;;;;;13.85;12.45;;;;;;;24.71;74.78;94312.94;5089608;28;20675;-79
2022/08/23 07:36:13;;;;;;;14.13;11.73;;;;;;;24.34;75.29;94269.84;5089797;28;20191;-81
2022/08/23 07:38:40;;;;;;;13.15;11.68;;;;;;;24.58;76.03;94310.59;5089451;28;20178;-81
2022/08/23 07:41:07;;;;;;;12.57;11.35;;;;;;;24.61;76.33;94311.94;5089781;28;20688;-80
2022/08/23 07:43:35;;;;;;;11.75;10.50;;;;;;;24.57;77.01;94305.59;5089847;28;20193;-80
2022/08/23 07:46:03;;;;;;;14.60;12.48;;;;;;;24.38;75.88;94279.63;5089613;28;20194;-80
2022/08/23 07:48:30;;;;;;;14.07;12.52;;;;;;;24.55;76.21;94302.41;5089246;28;20189;-81
2022/08/23 07:50:58;;;;;;;15.63;12.20;;;;;;;24.50;75.83;94308.34;5089749;28;20325;-80
2022/08/23 07:53:26;;;;;;;14.98;12.10;;;;;;;24.54;75.52;94299.03;5089021;28;20186;-81
2022/08/23 07:55:53;;;;;;;16.55;13.57;;;;;;;24.49;74.41;94323.25;5089505;28;20197;-80
2022/08/23 07:58:21;;;;;;;15.27;12.20;;;;;;;24.22;75.41;94267.28;5089471;28;20731;-80
2022/08/23 08:00:49;;;;;;;13.57;11.25;;;;;;;24.59;75.78;94316.63;5089092;28;20673;-81
2022/08/23 08:03:16;;;;;;;13.85;12.00;;;;;;;24.68;76.12;94323.06;5089405;28;20182;-79
2022/08/23 08:05:43;;;;;;;17.25;13.07;;;;;;;24.75;75.00;94326.34;5088948;28;20217;-81
2022/08/23 08:08:10;;;;;;;14.48;12.95;;;;;;;24.78;73.66;94328.47;5089421;28;20181;-81
2022/08/23 08:10:39;;;;;;;13.65;12.25;;;;;;;24.82;74.66;94329.56;5089093;28;20214;-80
2022/08/23 08:13:07;;;;;;;13.13;11.73;;;;;;;24.84;74.33;94330.16;5089327;28;20277;-81
2022/08/23 08:15:34;;;;;;;13.80;12.18;;;;;;;24.89;74.15;94338.09;5089209;28;20181;-80
2022/08/23 08:18:02;;;;;;;14.63;13.10;;;;;;;24.88;74.42;94338.34;5089538;28;20189;-80
2022/08/23 08:20:29;;;;;;;15.68;12.50;;;;;;;24.86;74.92;94329.91;5089028;28;20202;-80
2022/08/23 08:22:57;;;;;;;16.30;13.40;;;;;;;24.80;74.40;94344.72;5089230;28;20185;-81
2022/08/23 08:25:24;;;;;;;14.35;12.35;;;;;;;24.86;75.04;94346.38;5089163;28;20676;-80
2022/08/23 08:27:51;;;;;;;14.95;13.45;;;;;;;24.94;73.94;94343.41;5089245;28;20196;-81
2022/08/23 08:30:18;;;;;;;16.10;12.35;;;;;;;25.06;73.87;94345.19;5088930;28;20181;-81
2022/08/23 08:32:45;;;;;;;18.27;13.60;;;;;;;25.21;73.63;94346.22;5089301;28;20280;-81
2022/08/23 08:35:14;;;;;;;22.58;13.38;;;;;;;25.27;73.68;94350.53;5089061;28;20189;-81
2022/08/23 08:37:41;;;;;;;16.23;12.68;;;;;;;25.26;72.42;94342.94;5089416;28;20387;-81
2022/08/23 08:40:09;;;;;;;15.40;13.85;;;;;;;25.20;71.63;94338.63;5089594;28;20196;-81
2022/08/23 08:42:53;;;;;;;13.93;12.52;;;;;;;25.28;72.44;94341.66;5088920;28;20680;-79
2022/08/23 08:45:24;;;;;;;14.45;12.90;;;;;;;25.36;72.94;94337.84;5089130;28;20188;-81
2022/08/23 08:48:00;;;;;;;16.25;13.10;;;;;;;25.39;73.09;94339.19;5089005;28;20276;-81
2022/08/23 08:50:36;;;;;;;15.30;13.70;;;;;;;25.32;72.04;94338.56;5088772;28;20200;-82
2022/08/23 08:53:07;;;;;;;15.13;12.80;;;;;;;25.37;72.19;94331.56;5088865;28;20661;-80
2022/08/23 08:55:44;;;;;;;14.68;12.73;;;;;;;25.44;71.73;94337.44;5088536;28;20576;-80
2022/08/23 08:58:18;;;;;;;15.75;12.77;;;;;;;25.34;71.78;94323.41;5088844;28;20543;-80
2022/08/23 09:00:45;;;;;;;15.75;14.02;;;;;;;25.38;71.82;94330.53;5092430;28;20201;-81
2022/08/23 09:03:19;;;;;;;20.45;13.98;;;;;;;25.43;71.50;94322.78;5092903;28;20607;-79
2022/08/23 09:05:59;;;;;;;15.23;12.50;;;;;;;25.51;71.83;94322.34;5092326;28;20308;-80
2022/08/23 09:08:47;;;;;;;18.90;12.77;;;;;;;25.54;72.56;94313.25;5092969;28;20186;-79
2022/08/23 09:11:29;;;;;;;13.75;12.43;;;;;;;25.62;72.99;94309.44;5092296;28;20225;-80
2022/08/23 09:14:20;;;;;;;14.52;12.93;;;;;;;25.70;72.78;94301.94;5092624;28;20220;-81
2022/08/23 09:16:51;;;;;;;14.13;12.65;;;;;;;25.84;72.17;94302.44;5092690;28;20286;-80
2022/08/23 09:19:20;;;;;;;14.13;12.70;;;;;;;25.93;71.94;94294.94;5091942;28;20194;-80
2022/08/23 09:21:54;;;;;;;14.15;12.07;;;;;;;26.12;70.46;94301.50;5092749;28;20186;-80
2022/08/23 09:24:22;;;;;;;17.45;12.00;;;;;;;26.27;69.30;94293.78;5092126;28;20193;-80
2022/08/23 09:26:50;;;;;;;17.60;11.85;;;;;;;26.41;68.27;94303.91;5092603;28;20630;-80
2022/08/23 09:29:21;;;;;;;13.63;11.98;;;;;;;26.52;66.46;94300.38;5091907;28;20228;-81
2022/08/23 09:31:51;;;;;;;12.98;11.55;;;;;;;26.44;66.88;94303.44;5092090;28;20221;-80
2022/08/23 09:34:37;;;;;;;16.60;11.18;;;;;;;26.42;66.77;94290.53;5091615;28;20872;-81
2022/08/23 09:37:13;;;;;;;12.07;10.48;;;;;;;26.70;65.86;94299.25;5091964;28;20590;-80
2022/08/23 09:39:42;;;;;;;19.33;10.98;;;;;;;26.82;64.28;94305.16;5092081;28;20196;-81
2022/08/23 09:42:25;;;;;;;19.40;12.75;;;;;;;26.90;64.94;94299.44;5091680;28;20189;-81
2022/08/23 09:44:53;;;;;;;13.43;11.57;;;;;;;27.00;64.15;94311.88;5091790;28;20192;-80
2022/08/23 09:47:21;;;;;;;14.63;12.00;;;;;;;27.04;64.81;94314.78;5091679;28;20193;-80
2022/08/23 09:49:50;;;;;;;13.27;11.95;;;;;;;27.09;64.61;94315.66;5091938;28;20570;-81
2022/08/23 09:52:25;;;;;;;13.85;11.85;;;;;;;27.09;64.56;94310.41;5091447;28;20717;-81
2022/08/23 09:54:58;;;;;;;16.23;14.52;;;;;;;27.02;64.32;94315.03;5091841;28;20220;-81
2022/08/23 09:57:27;;;;;;;17.55;12.82;;;;;;;27.01;63.39;94311.59;5091375;28;20205;-80
2022/08/23 09:59:56;;;;;;;19.80;12.55;;;;;;;26.96;63.67;94306.31;5091924;28;20224;-81
2022/08/23 10:02:28;;;;;;;15.48;12.48;;;;;;;27.02;63.91;94309.78;5091410;28;20186;-81
2022/08/23 10:04:58;;;;;;;12.75;11.45;;;;;;;27.01;64.37;94310.81;5091319;28;20225;-81
2022/08/23 10:07:35;;;;;;;13.35;11.25;;;;;;;26.93;64.39;94312.06;5091302;28;20185;-81
2022/08/23 10:10:18;;;;;;;12.98;11.68;;;;;;;27.00;65.11;94312.66;5090861;28;20727;-80
2022/08/23 10:12:46;;;;;;;14.88;11.93;;;;;;;27.06;63.62;94312.69;5091375;28;20225;-81
2022/08/23 10:15:14;;;;;;;14.45;12.95;;;;;;;27.02;63.84;94310.56;5091225;28;20652;-81
2022/08/23 10:17:51;;;;;;;13.82;11.38;;;;;;;27.11;63.35;94320.63;5091562;28;20188;-81
2022/08/23 10:20:31;;;;;;;12.18;10.55;;;;;;;27.14;63.88;94307.03;5091118;28;20686;-80
2022/08/23 10:23:10;;;;;;;11.02;9.93;;;;;;;27.21;60.58;94308.41;5091414;28;20206;-79
2022/08/23 10:25:42;;;;;;;11.52;9.88;;;;;;;27.19;61.65;94317.56;5091152;28;20189;-81
2022/08/23 10:31:12;;;;;;;12.88;10.38;;;;;;;27.13;60.80;94310.69;5091010;28;20299;-81
2022/08/23 10:33:46;;;;;;;10.55;9.52;;;;;;;27.13;61.75;94303.59;5091257;28;20291;-80
2022/08/23 10:36:20;;;;;;;11.50;10.13;;;;;;;27.15;61.09;94303.34;5091337;28;20203;-81
2022/08/23 10:38:56;;;;;;;9.25;8.45;;;;;;;27.15;59.44;94305.97;5091386;28;20263;-80
2022/08/23 10:41:43;;;;;;;10.80;9.65;;;;;;;27.09;59.06;94292.03;5090661;28;20734;-81
2022/08/23 10:44:24;;;;;;;11.93;9.88;;;;;;;27.08;58.90;94298.28;5090889;28;20822;-79
2022/08/23 10:47:10;;;;;;;10.35;9.35;;;;;;;26.84;59.53;94289.16;5091376;28;20185;-82
2022/08/23 10:49:39;;;;;;;10.95;9.40;;;;;;;26.62;59.33;94281.31;5090774;28;20189;-80
2022/08/23 10:52:12;;;;;;;14.70;8.77;;;;;;;26.63;60.31;94296.03;5090889;28;20228;-80
2022/08/23 10:54:58;;;;;;;12.38;9.73;;;;;;;26.54;61.44;94297.50;5091137;28;20190;-81
2022/08/23 10:57:34;;;;;;;10.63;8.63;;;;;;;26.59;60.93;94287.06;5092024;28;20200;-80
2022/08/23 11:00:01;;;;;;;10.50;9.00;;;;;;;26.55;60.54;94297.25;5091686;28;20277;-81
2022/08/23 11:02:37;;;;;;;9.45;8.55;;;;;;;26.52;61.34;94282.03;5093736;28;20185;-81
2022/08/23 11:05:17;;;;;;;10.07;9.07;;;;;;;26.57;60.76;94282.06;5100030;28;20607;-81
2022/08/23 11:07:58;;;;;;;10.90;8.65;;;;;;;26.63;61.46;94285.53;5101583;28;20267;-81
2022/08/23 11:10:33;;;;;;;10.18;8.38;;;;;;;26.56;61.15;94267.38;5098902;28;20196;-82
2022/08/23 11:13:06;;;;;;;11.27;7.78;;;;;;;26.80;61.23;94280.97;5101379;28;20212;-82
2022/08/23 11:15:41;;;;;;;9.93;8.43;;;;;;;26.85;61.11;94275.75;5103659;28;20193;-81
2022/08/23 11:18:11;;;;;;;9.50;8.52;;;;;;;26.90;61.58;94267.97;5111510;28;20173;-79
2022/08/23 11:21:08;;;;;;;10.45;8.23;;;;;;;27.01;60.41;94284.56;5114499;28;20204;-80
2022/08/23 11:23:47;;;;;;;9.52;8.50;;;;;;;27.11;60.29;94287.31;5114262;28;20227;-80
2022/08/23 11:27:04;;;;;;;10.82;8.07;;;;;;;27.22;59.35;94293.44;5113729;28;20182;-80
2022/08/23 11:29:38;;;;;;;9.07;8.00;;;;;;;27.23;59.17;94295.00;5070651;28;20209;-81
2022/08/23 11:32:31;;;;;;;9.70;8.70;;;;;;;27.32;58.25;94297.97;5068780;28;20226;-80
2022/08/23 11:35:07;;;;;;;10.38;7.72;;;;;;;27.34;58.49;94288.03;5067889;28;20558;-80
2022/08/23 11:37:53;;;;;;;11.82;8.25;;;;;;;27.28;59.26;94274.03;5068213;28;20651;-79
2022/08/23 11:40:55;;;;;;;9.38;7.25;;;;;;;27.41;59.15;94278.84;5067639;28;20331;-80
2022/08/23 11:43:30;;;;;;;8.70;6.53;;;;;;;27.52;57.73;94277.91;5067147;28;20205;-79